createdAt,value
2024-03-24T00:14:11.252Z,5.00
2024-03-24T00:29:36.256Z,5.00
2024-03-24T00:45:01.255Z,4.15
2024-03-24T01:00:26.288Z,4.15
2024-03-24T01:15:51.261Z,4.15
2024-03-24T01:31:16.214Z,3.30
2024-03-24T01:46:41.224Z,3.30
2024-03-24T02:02:06.207Z,3.30
2024-03-24T02:17:31.247Z,2.98
2024-03-24T02:32:57.233Z,2.98
2024-03-24T02:48:22.206Z,2.98
2024-03-24T03:03:47.159Z,2.98
2024-03-24T03:19:12.234Z,2.13
2024-03-24T03:34:37.156Z,2.13
2024-03-24T03:50:02.146Z,2.13
2024-03-24T04:05:27.142Z,2.13
2024-03-24T04:20:52.119Z,2.64
2024-03-24T04:36:17.129Z,2.64
2024-03-24T04:51:42.130Z,2.64
2024-03-24T05:07:07.199Z,1.78
2024-03-24T05:22:32.119Z,2.27
2024-03-24T05:37:57.131Z,1.78
2024-03-24T05:53:22.070Z,2.27
2024-03-24T06:08:47.100Z,2.27
2024-03-24T06:24:12.149Z,2.27
2024-03-24T06:39:39.891Z,1.41
2024-03-24T06:55:02.105Z,1.41
2024-03-24T07:10:27.057Z,1.88
2024-03-24T07:25:52.114Z,1.41
2024-03-24T07:41:17.078Z,1.41
2024-03-24T07:56:42.201Z,2.27
2024-03-24T08:12:07.029Z,1.78
2024-03-24T08:27:31.990Z,2.13
2024-03-24T08:42:58.028Z,2.64
2024-03-24T08:58:23.020Z,3.50
2024-03-24T09:13:48.965Z,2.45
2024-03-24T09:29:14.131Z,2.98
2024-03-24T09:44:41.612Z,3.50
2024-03-24T10:00:04.040Z,3.50
2024-03-24T10:15:28.949Z,4.36
2024-03-24T10:30:53.939Z,4.36
2024-03-24T10:46:21.801Z,4.36
2024-03-24T11:01:43.914Z,3.30
2024-03-24T11:17:08.989Z,3.30
2024-03-24T11:32:33.916Z,3.30
2024-03-24T11:47:58.907Z,3.30
2024-03-24T12:03:23.921Z,3.30
2024-03-24T12:18:48.930Z,3.30
2024-03-24T12:34:13.950Z,2.75
2024-03-24T13:05:03.826Z,2.75
2024-03-24T13:20:28.908Z,2.75
2024-03-24T13:35:53.796Z,2.75
2024-03-24T13:51:18.860Z,5.35
2024-03-24T14:06:43.820Z,5.35
2024-03-24T14:22:08.803Z,4.86
2024-03-24T14:37:33.832Z,4.36
2024-03-24T14:52:58.803Z,3.84
2024-03-24T15:08:23.890Z,4.15
2024-03-24T15:23:49.804Z,3.30
2024-03-24T15:39:14.841Z,5.21
2024-03-24T15:54:39.816Z,5.72
2024-03-24T16:10:05.782Z,4.86
2024-03-24T16:25:30.787Z,5.72
2024-03-24T16:40:55.753Z,5.72
2024-03-24T16:56:21.794Z,5.72
2024-03-24T17:11:46.765Z,5.72
2024-03-24T17:27:11.768Z,5.72
2024-03-24T17:42:37.752Z,5.72
2024-03-24T17:58:02.692Z,5.72
2024-03-24T18:13:27.695Z,5.72
2024-03-24T18:28:52.731Z,5.21
2024-03-24T18:44:17.738Z,5.21
2024-03-24T18:59:44.431Z,5.21
2024-03-24T19:15:07.700Z,5.21
2024-03-24T19:30:32.755Z,5.72
2024-03-24T19:45:57.808Z,5.72
2024-03-24T20:01:22.805Z,5.72
2024-03-24T20:16:47.678Z,5.21
2024-03-24T20:32:12.722Z,5.21
2024-03-24T20:47:37.644Z,4.69
2024-03-24T21:03:02.624Z,4.69
2024-03-24T21:18:27.630Z,4.69
2024-03-24T21:33:53.624Z,4.69
2024-03-24T21:49:18.783Z,5.55
2024-03-24T22:04:43.599Z,5.55
2024-03-24T22:20:08.588Z,4.69
2024-03-24T22:35:33.567Z,5.55
2024-03-24T22:50:58.528Z,5.55
2024-03-24T23:06:23.584Z,5.00
2024-03-24T23:21:48.604Z,4.69
2024-03-24T23:37:13.548Z,4.69
2024-03-24T23:52:38.565Z,4.69
